sensor_id;sensor_type;location;lat;lon;timestamp;temperature;humidity
70947;DHT22;58605;48.700;8.760;2023-03-13T00:01:54;6.20;99.90
70947;DHT22;58605;48.700;8.760;2023-03-13T00:04:20;6.50;99.90
70947;DHT22;58605;48.700;8.760;2023-03-13T00:06:46;6.60;99.90
70947;DHT22;58605;48.700;8.760;2023-03-13T00:09:14;6.60;99.90
70947;DHT22;58605;48.700;8.760;2023-03-13T00:11:42;6.60;99.90
70947;DHT22;58605;48.700;8.760;2023-03-13T00:14:08;6.60;99.90
70947;DHT22;58605;48.700;8.760;2023-03-13T00:16:35;6.40;99.90
70947;DHT22;58605;48.700;8.760;2023-03-13T00:19:03;6.20;99.90
70947;DHT22;58605;48.700;8.760;2023-03-13T00:21:30;6.20;99.90
70947;DHT22;58605;48.700;8.760;2023-03-13T00:23:58;6.10;99.90
70947;DHT22;58605;48.700;8.760;2023-03-13T00:26:25;6.00;99.90
70947;DHT22;58605;48.700;8.760;2023-03-13T00:28:53;6.00;99.90
70947;DHT22;58605;48.700;8.760;2023-03-13T00:31:21;5.90;99.90
70947;DHT22;58605;48.700;8.760;2023-03-13T00:33:49;5.90;99.90
70947;DHT22;58605;48.700;8.760;2023-03-13T00:36:18;5.90;99.90
70947;DHT22;58605;48.700;8.760;2023-03-13T00:38:45;5.90;99.90
70947;DHT22;58605;48.700;8.760;2023-03-13T00:41:12;5.90;99.90
70947;DHT22;58605;48.700;8.760;2023-03-13T00:43:39;5.90;99.90
70947;DHT22;58605;48.700;8.760;2023-03-13T00:46:07;5.90;99.90
70947;DHT22;58605;48.700;8.760;2023-03-13T00:48:34;5.90;99.90
70947;DHT22;58605;48.700;8.760;2023-03-13T00:51:00;5.90;99.90
70947;DHT22;58605;48.700;8.760;2023-03-13T00:53:27;5.90;99.90
70947;DHT22;58605;48.700;8.760;2023-03-13T00:55:55;5.90;99.90
70947;DHT22;58605;48.700;8.760;2023-03-13T00:58:22;6.00;99.90
70947;DHT22;58605;48.700;8.760;2023-03-13T01:00:50;6.00;99.90
70947;DHT22;58605;48.700;8.760;2023-03-13T01:03:18;6.00;99.90
70947;DHT22;58605;48.700;8.760;2023-03-13T01:05:44;6.10;99.90
70947;DHT22;58605;48.700;8.760;2023-03-13T01:08:10;6.00;99.90
70947;DHT22;58605;48.700;8.760;2023-03-13T01:10:37;6.00;99.90
70947;DHT22;58605;48.700;8.760;2023-03-13T01:13:03;6.10;99.90
70947;DHT22;58605;48.700;8.760;2023-03-13T01:15:30;6.10;99.90
70947;DHT22;58605;48.700;8.760;2023-03-13T01:17:56;6.10;99.90
70947;DHT22;58605;48.700;8.760;2023-03-13T01:20:23;6.10;99.90
70947;DHT22;58605;48.700;8.760;2023-03-13T01:22:49;6.00;99.90
70947;DHT22;58605;48.700;8.760;2023-03-13T01:25:16;5.90;99.90
70947;DHT22;58605;48.700;8.760;2023-03-13T01:27:42;6.00;99.90
70947;DHT22;58605;48.700;8.760;2023-03-13T01:30:10;6.00;99.90
70947;DHT22;58605;48.700;8.760;2023-03-13T01:32:36;6.00;99.90
70947;DHT22;58605;48.700;8.760;2023-03-13T01:35:02;5.90;99.90
70947;DHT22;58605;48.700;8.760;2023-03-13T01:37:30;5.90;99.90
70947;DHT22;58605;48.700;8.760;2023-03-13T01:39:56;5.90;99.90
70947;DHT22;58605;48.700;8.760;2023-03-13T01:42:22;5.80;99.90
70947;DHT22;58605;48.700;8.760;2023-03-13T01:44:50;5.80;99.90
70947;DHT22;58605;48.700;8.760;2023-03-13T01:47:17;5.80;99.90
70947;DHT22;58605;48.700;8.760;2023-03-13T01:49:43;5.80;99.90
70947;DHT22;58605;48.700;8.760;2023-03-13T01:52:12;5.90;99.90
70947;DHT22;58605;48.700;8.760;2023-03-13T01:54:42;5.90;99.90
70947;DHT22;58605;48.700;8.760;2023-03-13T01:57:16;5.90;99.90
70947;DHT22;58605;48.700;8.760;2023-03-13T01:59:47;5.90;99.90
70947;DHT22;58605;48.700;8.760;2023-03-13T02:02:30;5.80;99.90
70947;DHT22;58605;48.700;8.760;2023-03-13T02:04:58;5.80;99.90
70947;DHT22;58605;48.700;8.760;2023-03-13T02:07:28;5.90;99.90
70947;DHT22;58605;48.700;8.760;2023-03-13T02:09:57;5.90;99.90
70947;DHT22;58605;48.700;8.760;2023-03-13T02:12:29;6.00;99.90
70947;DHT22;58605;48.700;8.760;2023-03-13T02:14:57;6.00;99.90
70947;DHT22;58605;48.700;8.760;2023-03-13T02:17:24;6.00;99.90
70947;DHT22;58605;48.700;8.760;2023-03-13T02:19:51;6.00;99.90
70947;DHT22;58605;48.700;8.760;2023-03-13T02:22:23;6.00;99.90
70947;DHT22;58605;48.700;8.760;2023-03-13T02:24:57;5.90;99.90
70947;DHT22;58605;48.700;8.760;2023-03-13T02:27:28;6.00;99.90
70947;DHT22;58605;48.700;8.760;2023-03-13T02:29:54;6.00;99.90
70947;DHT22;58605;48.700;8.760;2023-03-13T02:32:21;6.10;99.90
70947;DHT22;58605;48.700;8.760;2023-03-13T02:34:50;6.10;99.90
70947;DHT22;58605;48.700;8.760;2023-03-13T02:37:17;6.00;99.90
70947;DHT22;58605;48.700;8.760;2023-03-13T02:39:46;6.10;99.90
70947;DHT22;58605;48.700;8.760;2023-03-13T02:42:15;6.00;99.90
70947;DHT22;58605;48.700;8.760;2023-03-13T02:44:45;6.00;99.90
70947;DHT22;58605;48.700;8.760;2023-03-13T02:47:15;6.00;99.90
70947;DHT22;58605;48.700;8.760;2023-03-13T02:49:41;6.00;99.90
70947;DHT22;58605;48.700;8.760;2023-03-13T02:52:13;6.00;99.90
70947;DHT22;58605;48.700;8.760;2023-03-13T02:54:40;5.90;99.90
70947;DHT22;58605;48.700;8.760;2023-03-13T02:57:07;5.90;99.90
70947;DHT22;58605;48.700;8.760;2023-03-13T02:59:33;5.90;99.90
70947;DHT22;58605;48.700;8.760;2023-03-13T03:02:01;5.90;99.90
70947;DHT22;58605;48.700;8.760;2023-03-13T03:04:28;5.80;99.90
70947;DHT22;58605;48.700;8.760;2023-03-13T03:06:53;5.80;99.90
70947;DHT22;58605;48.700;8.760;2023-03-13T03:09:20;5.80;99.90
70947;DHT22;58605;48.700;8.760;2023-03-13T03:11:47;5.80;99.90
70947;DHT22;58605;48.700;8.760;2023-03-13T03:14:13;6.00;99.90
70947;DHT22;58605;48.700;8.760;2023-03-13T03:16:39;6.10;99.90
70947;DHT22;58605;48.700;8.760;2023-03-13T03:19:07;6.00;99.90
70947;DHT22;58605;48.700;8.760;2023-03-13T03:21:34;6.00;99.90
70947;DHT22;58605;48.700;8.760;2023-03-13T03:24:00;6.00;99.90
70947;DHT22;58605;48.700;8.760;2023-03-13T03:26:26;5.90;99.90
70947;DHT22;58605;48.700;8.760;2023-03-13T03:28:53;5.90;99.90
70947;DHT22;58605;48.700;8.760;2023-03-13T03:31:19;6.10;99.90
70947;DHT22;58605;48.700;8.760;2023-03-13T03:33:45;6.10;99.90
70947;DHT22;58605;48.700;8.760;2023-03-13T03:36:14;6.10;99.90
70947;DHT22;58605;48.700;8.760;2023-03-13T03:38:40;6.00;99.90
70947;DHT22;58605;48.700;8.760;2023-03-13T03:41:08;6.00;99.90
70947;DHT22;58605;48.700;8.760;2023-03-13T03:43:34;6.00;99.90
70947;DHT22;58605;48.700;8.760;2023-03-13T03:46:00;6.00;99.90
70947;DHT22;58605;48.700;8.760;2023-03-13T03:48:27;6.10;99.90
70947;DHT22;58605;48.700;8.760;2023-03-13T03:50:53;6.00;99.90
70947;DHT22;58605;48.700;8.760;2023-03-13T03:53:20;6.10;99.90
70947;DHT22;58605;48.700;8.760;2023-03-13T03:55:46;6.00;99.90
70947;DHT22;58605;48.700;8.760;2023-03-13T03:58:12;6.10;99.90
70947;DHT22;58605;48.700;8.760;2023-03-13T04:00:38;6.10;99.90
70947;DHT22;58605;48.700;8.760;2023-03-13T04:03:04;6.10;99.90
70947;DHT22;58605;48.700;8.760;2023-03-13T04:05:30;6.10;99.90
70947;DHT22;58605;48.700;8.760;2023-03-13T04:07:56;6.10;99.90
70947;DHT22;58605;48.700;8.760;2023-03-13T04:10:23;6.10;99.90
70947;DHT22;58605;48.700;8.760;2023-03-13T04:12:49;6.20;99.90
70947;DHT22;58605;48.700;8.760;2023-03-13T04:15:15;6.20;99.90
70947;DHT22;58605;48.700;8.760;2023-03-13T04:17:41;6.20;99.90
70947;DHT22;58605;48.700;8.760;2023-03-13T04:20:09;6.30;99.90
70947;DHT22;58605;48.700;8.760;2023-03-13T04:22:36;6.30;99.90
70947;DHT22;58605;48.700;8.760;2023-03-13T04:25:02;6.30;99.90
70947;DHT22;58605;48.700;8.760;2023-03-13T04:27:29;6.30;99.90
70947;DHT22;58605;48.700;8.760;2023-03-13T04:29:55;6.30;99.90
70947;DHT22;58605;48.700;8.760;2023-03-13T04:32:21;6.40;99.90
70947;DHT22;58605;48.700;8.760;2023-03-13T04:34:47;6.40;99.90
70947;DHT22;58605;48.700;8.760;2023-03-13T04:37:13;6.40;99.90
70947;DHT22;58605;48.700;8.760;2023-03-13T04:39:39;6.40;99.90
70947;DHT22;58605;48.700;8.760;2023-03-13T04:42:05;6.40;99.90
70947;DHT22;58605;48.700;8.760;2023-03-13T04:44:32;6.40;99.90
70947;DHT22;58605;48.700;8.760;2023-03-13T04:46:58;6.40;99.90
70947;DHT22;58605;48.700;8.760;2023-03-13T04:49:24;6.30;99.90
70947;DHT22;58605;48.700;8.760;2023-03-13T04:51:50;6.30;99.90
70947;DHT22;58605;48.700;8.760;2023-03-13T04:54:16;6.30;99.90
70947;DHT22;58605;48.700;8.760;2023-03-13T04:56:42;6.20;99.90
70947;DHT22;58605;48.700;8.760;2023-03-13T04:59:08;6.30;99.90
70947;DHT22;58605;48.700;8.760;2023-03-13T05:01:36;6.20;99.90
70947;DHT22;58605;48.700;8.760;2023-03-13T05:04:02;6.20;99.90
70947;DHT22;58605;48.700;8.760;2023-03-13T05:06:28;6.20;99.90
70947;DHT22;58605;48.700;8.760;2023-03-13T05:08:54;6.30;99.90
70947;DHT22;58605;48.700;8.760;2023-03-13T05:11:20;6.30;99.90
70947;DHT22;58605;48.700;8.760;2023-03-13T05:13:46;6.30;99.90
70947;DHT22;58605;48.700;8.760;2023-03-13T05:16:12;6.30;99.90
70947;DHT22;58605;48.700;8.760;2023-03-13T05:18:39;6.30;99.90
70947;DHT22;58605;48.700;8.760;2023-03-13T05:21:05;6.30;99.90
70947;DHT22;58605;48.700;8.760;2023-03-13T05:23:31;6.30;99.90
70947;DHT22;58605;48.700;8.760;2023-03-13T05:25:58;6.30;99.90
70947;DHT22;58605;48.700;8.760;2023-03-13T05:28:24;6.30;99.90
70947;DHT22;58605;48.700;8.760;2023-03-13T05:30:50;6.30;99.90
70947;DHT22;58605;48.700;8.760;2023-03-13T05:33:16;6.40;99.90
70947;DHT22;58605;48.700;8.760;2023-03-13T05:35:45;6.40;99.90
70947;DHT22;58605;48.700;8.760;2023-03-13T05:38:11;6.40;99.90
70947;DHT22;58605;48.700;8.760;2023-03-13T05:40:37;6.50;99.90
70947;DHT22;58605;48.700;8.760;2023-03-13T05:43:04;6.40;99.90
70947;DHT22;58605;48.700;8.760;2023-03-13T05:45:30;6.30;99.90
70947;DHT22;58605;48.700;8.760;2023-03-13T05:47:56;6.40;99.90
70947;DHT22;58605;48.700;8.760;2023-03-13T05:50:23;6.40;99.90
70947;DHT22;58605;48.700;8.760;2023-03-13T05:52:51;6.40;99.90
70947;DHT22;58605;48.700;8.760;2023-03-13T05:55:18;6.40;99.90
70947;DHT22;58605;48.700;8.760;2023-03-13T05:57:44;6.50;99.90
70947;DHT22;58605;48.700;8.760;2023-03-13T06:00:12;6.50;99.90
70947;DHT22;58605;48.700;8.760;2023-03-13T06:02:38;6.50;99.90
70947;DHT22;58605;48.700;8.760;2023-03-13T06:05:05;6.50;99.90
70947;DHT22;58605;48.700;8.760;2023-03-13T06:07:31;6.50;99.90
70947;DHT22;58605;48.700;8.760;2023-03-13T06:09:58;6.50;99.90
70947;DHT22;58605;48.700;8.760;2023-03-13T06:12:24;6.60;99.90
70947;DHT22;58605;48.700;8.760;2023-03-13T06:14:50;6.50;99.90
70947;DHT22;58605;48.700;8.760;2023-03-13T06:17:16;6.60;99.90
70947;DHT22;58605;48.700;8.760;2023-03-13T06:19:42;6.50;99.90
70947;DHT22;58605;48.700;8.760;2023-03-13T06:22:08;6.60;99.90
70947;DHT22;58605;48.700;8.760;2023-03-13T06:24:34;6.60;99.90
70947;DHT22;58605;48.700;8.760;2023-03-13T06:27:02;6.50;99.90
70947;DHT22;58605;48.700;8.760;2023-03-13T06:29:28;6.60;99.90
70947;DHT22;58605;48.700;8.760;2023-03-13T06:31:54;6.50;99.90
70947;DHT22;58605;48.700;8.760;2023-03-13T06:34:20;6.60;99.90
70947;DHT22;58605;48.700;8.760;2023-03-13T06:36:46;6.50;99.90
70947;DHT22;58605;48.700;8.760;2023-03-13T06:39:12;6.50;99.90
70947;DHT22;58605;48.700;8.760;2023-03-13T06:41:38;6.50;99.90
70947;DHT22;58605;48.700;8.760;2023-03-13T06:44:05;6.50;99.90
70947;DHT22;58605;48.700;8.760;2023-03-13T06:46:31;6.60;99.90
70947;DHT22;58605;48.700;8.760;2023-03-13T06:48:57;6.70;99.90
70947;DHT22;58605;48.700;8.760;2023-03-13T06:51:24;6.60;99.90
70947;DHT22;58605;48.700;8.760;2023-03-13T06:53:51;6.60;99.90
70947;DHT22;58605;48.700;8.760;2023-03-13T06:56:17;6.60;99.90
70947;DHT22;58605;48.700;8.760;2023-03-13T06:58:45;6.60;99.90
70947;DHT22;58605;48.700;8.760;2023-03-13T07:01:14;6.60;99.90
70947;DHT22;58605;48.700;8.760;2023-03-13T07:03:41;6.70;99.90
70947;DHT22;58605;48.700;8.760;2023-03-13T07:06:07;6.80;99.90
70947;DHT22;58605;48.700;8.760;2023-03-13T07:08:34;6.70;99.90
70947;DHT22;58605;48.700;8.760;2023-03-13T07:11:02;6.80;99.90
70947;DHT22;58605;48.700;8.760;2023-03-13T07:13:29;6.60;99.90
70947;DHT22;58605;48.700;8.760;2023-03-13T07:15:58;6.60;99.90
70947;DHT22;58605;48.700;8.760;2023-03-13T07:18:26;6.60;99.90
70947;DHT22;58605;48.700;8.760;2023-03-13T07:20:56;6.60;99.90
70947;DHT22;58605;48.700;8.760;2023-03-13T07:23:22;6.60;99.90
70947;DHT22;58605;48.700;8.760;2023-03-13T07:25:52;6.60;99.90
70947;DHT22;58605;48.700;8.760;2023-03-13T07:28:19;6.60;99.90
70947;DHT22;58605;48.700;8.760;2023-03-13T07:30:45;6.60;99.90
70947;DHT22;58605;48.700;8.760;2023-03-13T07:33:11;6.60;99.90
70947;DHT22;58605;48.700;8.760;2023-03-13T07:35:39;6.60;99.90
70947;DHT22;58605;48.700;8.760;2023-03-13T07:38:04;6.70;99.90
70947;DHT22;58605;48.700;8.760;2023-03-13T07:40:30;6.70;99.90
70947;DHT22;58605;48.700;8.760;2023-03-13T07:43:03;6.70;99.90
70947;DHT22;58605;48.700;8.760;2023-03-13T07:45:35;6.60;99.90
70947;DHT22;58605;48.700;8.760;2023-03-13T07:48:01;6.70;99.90
70947;DHT22;58605;48.700;8.760;2023-03-13T07:50:27;6.80;99.90
70947;DHT22;58605;48.700;8.760;2023-03-13T07:52:54;6.70;99.90
70947;DHT22;58605;48.700;8.760;2023-03-13T07:55:20;6.80;99.90
70947;DHT22;58605;48.700;8.760;2023-03-13T07:57:46;6.80;99.90
70947;DHT22;58605;48.700;8.760;2023-03-13T08:00:13;6.80;99.90
70947;DHT22;58605;48.700;8.760;2023-03-13T08:02:42;6.70;99.90
70947;DHT22;58605;48.700;8.760;2023-03-13T08:05:08;6.80;99.90
70947;DHT22;58605;48.700;8.760;2023-03-13T08:07:34;6.90;99.90
70947;DHT22;58605;48.700;8.760;2023-03-13T08:10:02;6.80;99.90
70947;DHT22;58605;48.700;8.760;2023-03-13T08:12:28;6.80;99.90
70947;DHT22;58605;48.700;8.760;2023-03-13T08:14:54;6.80;99.90
70947;DHT22;58605;48.700;8.760;2023-03-13T08:17:20;7.00;99.90
70947;DHT22;58605;48.700;8.760;2023-03-13T08:19:52;6.80;99.90
70947;DHT22;58605;48.700;8.760;2023-03-13T08:22:24;6.80;99.90
70947;DHT22;58605;48.700;8.760;2023-03-13T08:24:50;6.90;99.90
70947;DHT22;58605;48.700;8.760;2023-03-13T08:27:18;6.90;99.90
70947;DHT22;58605;48.700;8.760;2023-03-13T08:29:44;6.90;99.90
70947;DHT22;58605;48.700;8.760;2023-03-13T08:32:10;7.00;99.90
70947;DHT22;58605;48.700;8.760;2023-03-13T08:34:37;6.90;99.90
70947;DHT22;58605;48.700;8.760;2023-03-13T08:37:03;6.90;99.90
70947;DHT22;58605;48.700;8.760;2023-03-13T08:39:29;7.00;99.90
70947;DHT22;58605;48.700;8.760;2023-03-13T08:41:56;6.90;99.90
70947;DHT22;58605;48.700;8.760;2023-03-13T08:44:23;7.10;99.90
70947;DHT22;58605;48.700;8.760;2023-03-13T08:46:49;7.10;99.90
70947;DHT22;58605;48.700;8.760;2023-03-13T08:49:15;7.00;99.90
70947;DHT22;58605;48.700;8.760;2023-03-13T08:51:42;7.10;99.90
70947;DHT22;58605;48.700;8.760;2023-03-13T08:54:08;7.00;99.90
70947;DHT22;58605;48.700;8.760;2023-03-13T08:56:35;6.90;99.90
70947;DHT22;58605;48.700;8.760;2023-03-13T08:59:03;6.90;99.90
70947;DHT22;58605;48.700;8.760;2023-03-13T09:01:32;6.90;99.90
70947;DHT22;58605;48.700;8.760;2023-03-13T09:03:59;6.90;99.90
70947;DHT22;58605;48.700;8.760;2023-03-13T09:06:25;7.00;99.90
70947;DHT22;58605;48.700;8.760;2023-03-13T09:08:51;6.90;99.90
70947;DHT22;58605;48.700;8.760;2023-03-13T09:11:19;7.00;99.90
70947;DHT22;58605;48.700;8.760;2023-03-13T09:13:46;7.00;99.90
70947;DHT22;58605;48.700;8.760;2023-03-13T09:16:14;7.00;99.90
70947;DHT22;58605;48.700;8.760;2023-03-13T09:18:42;7.10;99.90
70947;DHT22;58605;48.700;8.760;2023-03-13T09:21:10;7.10;99.90
70947;DHT22;58605;48.700;8.760;2023-03-13T09:23:37;7.20;99.90
70947;DHT22;58605;48.700;8.760;2023-03-13T09:26:04;7.30;99.90
70947;DHT22;58605;48.700;8.760;2023-03-13T09:28:33;7.20;99.90
70947;DHT22;58605;48.700;8.760;2023-03-13T09:31:06;7.20;99.90
70947;DHT22;58605;48.700;8.760;2023-03-13T09:33:32;7.20;99.90
70947;DHT22;58605;48.700;8.760;2023-03-13T09:35:59;7.20;99.90
70947;DHT22;58605;48.700;8.760;2023-03-13T09:38:25;7.40;99.90
70947;DHT22;58605;48.700;8.760;2023-03-13T09:40:52;7.30;99.90
70947;DHT22;58605;48.700;8.760;2023-03-13T09:43:24;7.50;99.90
70947;DHT22;58605;48.700;8.760;2023-03-13T09:45:59;7.30;99.90
70947;DHT22;58605;48.700;8.760;2023-03-13T09:48:29;7.30;99.90
70947;DHT22;58605;48.700;8.760;2023-03-13T09:51:02;7.40;99.90
70947;DHT22;58605;48.700;8.760;2023-03-13T09:53:35;7.30;99.90
70947;DHT22;58605;48.700;8.760;2023-03-13T09:56:10;7.30;99.90
70947;DHT22;58605;48.700;8.760;2023-03-13T09:58:42;7.30;99.90
70947;DHT22;58605;48.700;8.760;2023-03-13T10:01:10;7.30;99.90
70947;DHT22;58605;48.700;8.760;2023-03-13T10:03:41;7.30;99.90
70947;DHT22;58605;48.700;8.760;2023-03-13T10:06:17;7.30;99.90
70947;DHT22;58605;48.700;8.760;2023-03-13T10:08:43;7.30;99.90
70947;DHT22;58605;48.700;8.760;2023-03-13T10:11:11;7.40;99.90
70947;DHT22;58605;48.700;8.760;2023-03-13T10:13:46;7.40;99.90
70947;DHT22;58605;48.700;8.760;2023-03-13T10:16:16;7.40;99.90
70947;DHT22;58605;48.700;8.760;2023-03-13T10:18:44;7.40;99.90
70947;DHT22;58605;48.700;8.760;2023-03-13T10:21:17;7.30;99.90
70947;DHT22;58605;48.700;8.760;2023-03-13T10:23:49;7.40;99.90
70947;DHT22;58605;48.700;8.760;2023-03-13T10:26:19;7.50;99.90
70947;DHT22;58605;48.700;8.760;2023-03-13T10:28:46;7.60;99.90
70947;DHT22;58605;48.700;8.760;2023-03-13T10:31:18;7.60;99.90
70947;DHT22;58605;48.700;8.760;2023-03-13T10:33:47;7.40;99.90
70947;DHT22;58605;48.700;8.760;2023-03-13T10:36:15;7.40;99.90
70947;DHT22;58605;48.700;8.760;2023-03-13T10:38:49;7.40;99.90
70947;DHT22;58605;48.700;8.760;2023-03-13T10:41:27;7.60;99.90
70947;DHT22;58605;48.700;8.760;2023-03-13T10:43:57;7.60;99.90
70947;DHT22;58605;48.700;8.760;2023-03-13T10:46:25;7.60;99.90
70947;DHT22;58605;48.700;8.760;2023-03-13T10:48:53;7.50;99.90
70947;DHT22;58605;48.700;8.760;2023-03-13T10:51:23;7.70;99.90
70947;DHT22;58605;48.700;8.760;2023-03-13T10:53:49;7.70;99.90
70947;DHT22;58605;48.700;8.760;2023-03-13T10:56:24;7.70;99.90
70947;DHT22;58605;48.700;8.760;2023-03-13T10:58:53;7.80;99.90
70947;DHT22;58605;48.700;8.760;2023-03-13T11:01:21;7.80;99.90
70947;DHT22;58605;48.700;8.760;2023-03-13T11:03:49;7.80;99.90
70947;DHT22;58605;48.700;8.760;2023-03-13T11:06:27;7.80;99.90
70947;DHT22;58605;48.700;8.760;2023-03-13T11:09:03;7.70;99.90
70947;DHT22;58605;48.700;8.760;2023-03-13T11:11:29;7.70;99.90
70947;DHT22;58605;48.700;8.760;2023-03-13T11:14:07;7.80;99.90
70947;DHT22;58605;48.700;8.760;2023-03-13T11:16:38;7.70;99.90
70947;DHT22;58605;48.700;8.760;2023-03-13T11:19:34;7.80;99.90
70947;DHT22;58605;48.700;8.760;2023-03-13T11:22:18;7.80;99.90
70947;DHT22;58605;48.700;8.760;2023-03-13T11:24:53;7.80;99.90
70947;DHT22;58605;48.700;8.760;2023-03-13T11:27:27;7.80;99.90
70947;DHT22;58605;48.700;8.760;2023-03-13T11:30:04;8.20;99.90
70947;DHT22;58605;48.700;8.760;2023-03-13T11:32:40;7.90;99.90
70947;DHT22;58605;48.700;8.760;2023-03-13T11:35:16;7.80;99.90
70947;DHT22;58605;48.700;8.760;2023-03-13T11:37:45;7.90;99.90
70947;DHT22;58605;48.700;8.760;2023-03-13T11:40:17;8.10;99.90
70947;DHT22;58605;48.700;8.760;2023-03-13T11:42:58;8.60;99.90
70947;DHT22;58605;48.700;8.760;2023-03-13T11:45:45;8.40;99.90
70947;DHT22;58605;48.700;8.760;2023-03-13T11:48:19;8.30;99.90
70947;DHT22;58605;48.700;8.760;2023-03-13T11:50:51;8.40;99.90
70947;DHT22;58605;48.700;8.760;2023-03-13T11:53:40;8.30;99.90
70947;DHT22;58605;48.700;8.760;2023-03-13T11:56:12;8.30;99.90
70947;DHT22;58605;48.700;8.760;2023-03-13T12:01:27;8.70;99.90
70947;DHT22;58605;48.700;8.760;2023-03-13T12:03:58;8.50;99.90
70947;DHT22;58605;48.700;8.760;2023-03-13T12:06:30;8.40;99.90
70947;DHT22;58605;48.700;8.760;2023-03-13T12:09:02;8.30;99.90
70947;DHT22;58605;48.700;8.760;2023-03-13T12:11:34;8.30;99.90
70947;DHT22;58605;48.700;8.760;2023-03-13T12:14:05;8.20;99.90
70947;DHT22;58605;48.700;8.760;2023-03-13T12:16:40;8.20;99.90
70947;DHT22;58605;48.700;8.760;2023-03-13T12:19:10;8.20;99.90
70947;DHT22;58605;48.700;8.760;2023-03-13T12:21:40;8.20;99.90
70947;DHT22;58605;48.700;8.760;2023-03-13T12:24:17;8.20;99.90
70947;DHT22;58605;48.700;8.760;2023-03-13T12:26:47;8.40;99.90
70947;DHT22;58605;48.700;8.760;2023-03-13T12:29:17;8.80;99.90
70947;DHT22;58605;48.700;8.760;2023-03-13T12:31:49;8.50;99.90
70947;DHT22;58605;48.700;8.760;2023-03-13T12:34:22;8.40;99.90
70947;DHT22;58605;48.700;8.760;2023-03-13T12:36:53;8.40;99.90
70947;DHT22;58605;48.700;8.760;2023-03-13T12:39:28;8.40;99.90
70947;DHT22;58605;48.700;8.760;2023-03-13T12:42:09;8.30;99.90
70947;DHT22;58605;48.700;8.760;2023-03-13T12:44:38;8.30;99.90
70947;DHT22;58605;48.700;8.760;2023-03-13T12:47:08;8.50;99.90
70947;DHT22;58605;48.700;8.760;2023-03-13T12:49:59;8.60;99.90
70947;DHT22;58605;48.700;8.760;2023-03-13T12:52:56;8.60;99.90
70947;DHT22;58605;48.700;8.760;2023-03-13T12:55:41;8.50;99.90
70947;DHT22;58605;48.700;8.760;2023-03-13T12:58:13;8.40;99.90
70947;DHT22;58605;48.700;8.760;2023-03-13T13:00:45;8.60;99.90
70947;DHT22;58605;48.700;8.760;2023-03-13T13:03:26;8.50;99.90
70947;DHT22;58605;48.700;8.760;2023-03-13T13:06:01;8.60;99.90
70947;DHT22;58605;48.700;8.760;2023-03-13T13:08:33;8.50;99.90
70947;DHT22;58605;48.700;8.760;2023-03-13T13:16:49;8.60;99.90
70947;DHT22;58605;48.700;8.760;2023-03-13T13:19:44;8.60;99.90
70947;DHT22;58605;48.700;8.760;2023-03-13T13:22:45;8.80;99.90
70947;DHT22;58605;48.700;8.760;2023-03-13T13:25:31;8.80;99.90
70947;DHT22;58605;48.700;8.760;2023-03-13T13:28:18;9.00;99.90
70947;DHT22;58605;48.700;8.760;2023-03-13T13:30:49;8.90;99.90
70947;DHT22;58605;48.700;8.760;2023-03-13T13:33:37;8.60;99.90
70947;DHT22;58605;48.700;8.760;2023-03-13T13:36:39;8.70;99.90
70947;DHT22;58605;48.700;8.760;2023-03-13T13:39:36;8.60;99.90
70947;DHT22;58605;48.700;8.760;2023-03-13T13:42:43;8.70;99.90
70947;DHT22;58605;48.700;8.760;2023-03-13T13:45:21;8.70;99.90
70947;DHT22;58605;48.700;8.760;2023-03-13T13:48:20;8.70;99.90
70947;DHT22;58605;48.700;8.760;2023-03-13T13:51:22;8.80;99.90
70947;DHT22;58605;48.700;8.760;2023-03-13T13:53:51;8.90;99.90
70947;DHT22;58605;48.700;8.760;2023-03-13T13:59:33;8.90;99.90
70947;DHT22;58605;48.700;8.760;2023-03-13T14:02:15;8.90;99.90
70947;DHT22;58605;48.700;8.760;2023-03-13T14:04:47;8.90;99.90
70947;DHT22;58605;48.700;8.760;2023-03-13T14:07:17;9.00;99.90
70947;DHT22;58605;48.700;8.760;2023-03-13T14:09:49;9.00;99.90
70947;DHT22;58605;48.700;8.760;2023-03-13T14:12:28;9.20;99.90
70947;DHT22;58605;48.700;8.760;2023-03-13T14:15:13;9.10;99.90
70947;DHT22;58605;48.700;8.760;2023-03-13T14:17:42;9.00;99.90
70947;DHT22;58605;48.700;8.760;2023-03-13T14:20:24;9.10;99.90
70947;DHT22;58605;48.700;8.760;2023-03-13T14:22:56;9.00;99.90
70947;DHT22;58605;48.700;8.760;2023-03-13T14:25:23;8.90;99.90
70947;DHT22;58605;48.700;8.760;2023-03-13T14:27:51;9.10;99.90
70947;DHT22;58605;48.700;8.760;2023-03-13T14:30:18;9.10;99.90
70947;DHT22;58605;48.700;8.760;2023-03-13T14:32:45;9.20;99.90
70947;DHT22;58605;48.700;8.760;2023-03-13T14:35:14;9.00;99.90
70947;DHT22;58605;48.700;8.760;2023-03-13T14:37:43;9.00;99.90
70947;DHT22;58605;48.700;8.760;2023-03-13T14:40:19;9.00;99.90
70947;DHT22;58605;48.700;8.760;2023-03-13T14:42:46;8.90;99.90
70947;DHT22;58605;48.700;8.760;2023-03-13T14:45:13;9.10;99.90
70947;DHT22;58605;48.700;8.760;2023-03-13T14:47:40;9.10;99.90
70947;DHT22;58605;48.700;8.760;2023-03-13T14:50:11;9.30;99.90
70947;DHT22;58605;48.700;8.760;2023-03-13T14:52:45;9.10;99.90
70947;DHT22;58605;48.700;8.760;2023-03-13T14:55:28;9.60;99.90
70947;DHT22;58605;48.700;8.760;2023-03-13T14:57:58;9.50;99.90
70947;DHT22;58605;48.700;8.760;2023-03-13T15:00:31;9.30;99.90
70947;DHT22;58605;48.700;8.760;2023-03-13T15:03:21;9.40;99.90
70947;DHT22;58605;48.700;8.760;2023-03-13T15:05:48;9.20;99.90
70947;DHT22;58605;48.700;8.760;2023-03-13T15:08:18;9.20;99.90
70947;DHT22;58605;48.700;8.760;2023-03-13T15:10:44;9.20;99.90
70947;DHT22;58605;48.700;8.760;2023-03-13T15:13:15;9.10;99.90
70947;DHT22;58605;48.700;8.760;2023-03-13T15:15:42;9.20;99.90
70947;DHT22;58605;48.700;8.760;2023-03-13T15:18:16;9.10;99.90
70947;DHT22;58605;48.700;8.760;2023-03-13T15:20:43;9.30;99.90
70947;DHT22;58605;48.700;8.760;2023-03-13T15:23:10;9.30;99.90
70947;DHT22;58605;48.700;8.760;2023-03-13T15:25:39;9.30;99.90
70947;DHT22;58605;48.700;8.760;2023-03-13T15:28:13;9.30;99.90
70947;DHT22;58605;48.700;8.760;2023-03-13T15:30:40;9.30;99.90
70947;DHT22;58605;48.700;8.760;2023-03-13T15:33:11;9.30;99.90
70947;DHT22;58605;48.700;8.760;2023-03-13T15:35:38;9.40;99.90
70947;DHT22;58605;48.700;8.760;2023-03-13T15:38:09;9.30;99.90
70947;DHT22;58605;48.700;8.760;2023-03-13T15:40:38;9.40;99.90
70947;DHT22;58605;48.700;8.760;2023-03-13T15:43:06;9.30;99.90
70947;DHT22;58605;48.700;8.760;2023-03-13T15:45:32;9.30;99.90
70947;DHT22;58605;48.700;8.760;2023-03-13T15:47:58;9.50;99.90
70947;DHT22;58605;48.700;8.760;2023-03-13T15:50:24;9.30;99.90
70947;DHT22;58605;48.700;8.760;2023-03-13T15:52:55;9.30;99.90
70947;DHT22;58605;48.700;8.760;2023-03-13T15:55:21;9.50;99.90
70947;DHT22;58605;48.700;8.760;2023-03-13T15:57:49;9.40;99.90
70947;DHT22;58605;48.700;8.760;2023-03-13T16:00:19;9.50;99.90
70947;DHT22;58605;48.700;8.760;2023-03-13T16:02:45;9.40;99.90
70947;DHT22;58605;48.700;8.760;2023-03-13T16:05:11;9.50;99.90
70947;DHT22;58605;48.700;8.760;2023-03-13T16:07:37;9.50;99.90
70947;DHT22;58605;48.700;8.760;2023-03-13T16:10:09;9.40;99.90
70947;DHT22;58605;48.700;8.760;2023-03-13T16:12:37;9.50;99.90